createdAt,value
2022-12-04T00:02:18.381Z,100216.66
2022-12-04T00:05:20.145Z,100206.81
2022-12-04T00:08:21.869Z,100202.91
2022-12-04T00:11:27.546Z,100198.13
2022-12-04T00:14:29.310Z,100203.31
2022-12-04T00:17:30.947Z,100208.09
2022-12-04T00:20:32.584Z,100210.50
2022-12-04T00:23:34.707Z,100204.72
2022-12-04T00:26:38.155Z,100216.81
2022-12-04T00:29:39.870Z,100196.44
2022-12-04T00:32:41.535Z,100184.94
2022-12-04T00:35:43.238Z,100196.22
2022-12-04T00:38:45.057Z,100199.50
2022-12-04T00:41:47.997Z,100196.59
2022-12-04T00:44:49.782Z,100204.53
2022-12-04T00:47:51.509Z,100205.59
2022-12-04T00:50:54.186Z,100204.72
2022-12-04T00:53:55.918Z,100211.75
2022-12-04T00:56:59.005Z,100199.16
2022-12-04T01:00:00.692Z,100203.38
2022-12-04T01:03:02.736Z,100202.13
2022-12-04T01:06:05.387Z,100200.66
2022-12-04T01:09:07.068Z,100192.63
2022-12-04T01:12:10.094Z,100181.69
2022-12-04T01:15:11.891Z,100179.16
2022-12-04T01:18:14.813Z,100175.66
2022-12-04T01:21:17.309Z,100167.69
2022-12-04T01:24:18.995Z,100163.81
2022-12-04T01:27:21.948Z,100171.59
2022-12-04T01:30:23.687Z,100175.03
2022-12-04T01:33:25.318Z,100182.63
2022-12-04T01:36:28.291Z,100191.19
2022-12-04T01:39:29.945Z,100187.50
2022-12-04T01:42:32.990Z,100192.81
2022-12-04T01:45:41.176Z,100186.00
2022-12-04T01:48:46.454Z,100187.88
2022-12-04T01:51:51.643Z,100190.28
2022-12-04T01:54:59.068Z,100188.78
2022-12-04T01:58:02.974Z,100177.16
2022-12-04T02:01:08.869Z,100177.16
2022-12-04T02:04:10.988Z,100185.94
2022-12-04T02:07:12.814Z,100182.34
2022-12-04T02:10:17.057Z,100177.34
2022-12-04T02:13:27.013Z,100177.88
2022-12-04T02:16:36.732Z,100181.38
2022-12-04T02:20:11.222Z,100182.09
2022-12-04T02:23:28.437Z,100177.88
2022-12-04T02:26:40.776Z,100186.91
2022-12-04T02:29:51.256Z,100184.91
2022-12-04T02:33:01.723Z,100180.84
2022-12-04T02:36:08.378Z,100187.88
2022-12-04T02:39:19.236Z,100184.22
2022-12-04T02:42:30.502Z,100179.75
2022-12-04T02:45:40.149Z,100180.66
2022-12-04T02:48:46.358Z,100192.47
2022-12-04T02:51:49.843Z,100189.22
2022-12-04T02:54:56.536Z,100192.16
2022-12-04T02:58:02.739Z,100185.53
2022-12-04T03:01:29.367Z,100183.25
2022-12-04T03:04:31.689Z,100186.19
2022-12-04T03:07:38.647Z,100186.94
2022-12-04T03:10:46.193Z,100173.22
2022-12-04T03:13:50.755Z,100171.97
2022-12-04T03:16:59.340Z,100166.22
2022-12-04T03:20:05.646Z,100160.47
2022-12-04T03:23:12.416Z,100153.28
2022-12-04T03:26:22.270Z,100158.06
2022-12-04T03:29:33.288Z,100147.13
2022-12-04T03:32:41.205Z,100158.28
2022-12-04T03:35:48.695Z,100147.50
2022-12-04T03:38:56.512Z,100149.72
2022-12-04T03:42:02.175Z,100149.53
2022-12-04T03:45:10.536Z,100138.97
2022-12-04T03:48:22.969Z,100134.91
2022-12-04T03:51:33.550Z,100131.75
2022-12-04T03:54:40.915Z,100132.34
2022-12-04T03:57:45.570Z,100139.59
2022-12-04T04:00:50.780Z,100135.13
2022-12-04T04:03:57.630Z,100128.63
2022-12-04T04:07:04.667Z,100132.53
2022-12-04T04:10:13.918Z,100132.56
2022-12-04T04:13:40.371Z,100126.25
2022-12-04T04:17:06.348Z,100127.72
2022-12-04T04:20:34.002Z,100121.63
2022-12-04T04:23:59.073Z,100116.81
2022-12-04T04:27:01.718Z,100118.66
2022-12-04T04:30:04.288Z,100130.72
2022-12-04T04:33:11.518Z,100130.13
2022-12-04T04:36:21.929Z,100122.94
2022-12-04T04:39:32.962Z,100112.91
2022-12-04T04:42:40.414Z,100111.59
2022-12-04T04:45:47.731Z,100116.47
2022-12-04T04:48:52.589Z,100111.06
2022-12-04T04:51:56.574Z,100120.69
2022-12-04T04:55:00.306Z,100118.84
2022-12-04T04:58:09.491Z,100113.84
2022-12-04T05:01:13.967Z,100118.47
2022-12-04T05:04:15.638Z,100118.31
2022-12-04T05:07:18.675Z,100126.09
2022-12-04T05:10:20.290Z,100118.31
2022-12-04T05:13:22.108Z,100137.75
2022-12-04T05:16:24.197Z,100122.19
2022-12-04T05:19:44.585Z,100120.13
2022-12-04T05:22:47.605Z,100130.72
2022-12-04T05:25:49.652Z,100132.22
2022-12-04T05:28:51.483Z,100129.59
2022-12-04T05:31:53.055Z,100126.44
2022-12-04T05:34:56.262Z,100140.75
2022-12-04T05:37:59.179Z,100129.44
2022-12-04T05:41:01.947Z,100128.69
2022-12-04T05:44:04.028Z,100125.53
2022-12-04T05:47:06.015Z,100128.84
2022-12-04T05:50:09.994Z,100132.19
2022-12-04T05:53:13.008Z,100125.88
2022-12-04T05:56:14.638Z,100125.53
2022-12-04T05:59:16.526Z,100130.91
2022-12-04T06:02:18.268Z,100142.94
2022-12-04T06:05:20.112Z,100137.78
2022-12-04T06:08:23.018Z,100137.00
2022-12-04T06:11:27.978Z,100139.81
2022-12-04T06:14:31.030Z,100137.03
2022-12-04T06:17:35.378Z,100135.53
2022-12-04T06:20:37.174Z,100138.13
2022-12-04T06:23:40.182Z,100134.44
2022-12-04T06:27:04.042Z,100141.31
2022-12-04T06:30:03.942Z,100142.03
2022-12-04T06:33:05.607Z,100146.69
2022-12-04T06:36:09.198Z,100145.19
2022-12-04T06:39:18.347Z,100133.66
2022-12-04T06:42:20.430Z,100142.22
2022-12-04T06:45:22.207Z,100139.06
2022-12-04T06:48:24.221Z,100139.81
2022-12-04T06:51:28.378Z,100132.19
2022-12-04T06:54:31.457Z,100121.63
2022-12-04T06:57:33.367Z,100123.47
2022-12-04T07:00:35.189Z,100124.78
2022-12-04T07:03:39.074Z,100124.78
2022-12-04T07:06:41.734Z,100126.66
2022-12-04T07:09:46.714Z,100128.31
2022-12-04T07:12:48.346Z,100133.88
2022-12-04T07:15:49.973Z,100133.31
2022-12-04T07:18:56.453Z,100128.66
2022-12-04T07:21:58.101Z,100126.66
2022-12-04T07:25:01.106Z,100123.84
2022-12-04T07:28:02.743Z,100129.41
2022-12-04T07:31:05.559Z,100121.63
2022-12-04T07:34:07.338Z,100124.41
2022-12-04T07:37:08.941Z,100131.63
2022-12-04T07:40:13.578Z,100132.94
2022-12-04T07:43:15.468Z,100132.56
2022-12-04T07:46:19.644Z,100139.81
2022-12-04T07:49:21.364Z,100140.34
2022-12-04T07:52:23.140Z,100144.81
2022-12-04T07:55:26.169Z,100148.53
2022-12-04T07:58:27.855Z,100157.03
2022-12-04T08:01:30.191Z,100150.38
2022-12-04T08:04:32.212Z,100146.84
2022-12-04T08:07:33.949Z,100140.34
2022-12-04T08:10:39.803Z,100136.66
2022-12-04T08:13:41.804Z,100139.22
2022-12-04T08:16:48.184Z,100134.25
2022-12-04T08:19:53.161Z,100128.84
2022-12-04T08:22:54.975Z,100132.38
2022-12-04T08:26:00.237Z,100135.91
2022-12-04T08:29:02.599Z,100132.91
2022-12-04T08:32:05.330Z,100127.34
2022-12-04T08:35:07.843Z,100131.63
2022-12-04T08:38:09.480Z,100123.09
2022-12-04T08:41:14.763Z,100117.69
2022-12-04T08:44:16.262Z,100119.16
2022-12-04T08:47:17.935Z,100125.66
2022-12-04T08:50:19.697Z,100132.31
2022-12-04T08:53:22.386Z,100138.47
2022-12-04T08:56:26.719Z,100129.94
2022-12-04T08:59:28.379Z,100132.16
2022-12-04T09:02:30.060Z,100141.97
2022-12-04T09:05:31.785Z,100137.72
2022-12-04T09:08:34.368Z,100132.53
2022-12-04T09:11:37.346Z,100121.72
2022-12-04T09:14:39.191Z,100132.88
2022-12-04T09:17:40.866Z,100134.31
2022-12-04T09:20:42.567Z,100134.88
2022-12-04T09:23:45.099Z,100131.38
2022-12-04T09:26:48.083Z,100119.34
2022-12-04T09:29:49.845Z,100135.63
2022-12-04T09:32:51.556Z,100132.84
2022-12-04T09:35:53.539Z,100144.34
2022-12-04T09:38:55.721Z,100138.75
2022-12-04T09:42:19.738Z,100131.53
2022-12-04T09:45:24.034Z,100133.00
2022-12-04T09:48:33.182Z,100132.78
2022-12-04T09:51:35.921Z,100129.84
2022-12-04T09:54:42.533Z,100132.97
2022-12-04T09:57:48.080Z,100135.00
2022-12-04T10:00:52.438Z,100119.25
2022-12-04T10:03:55.758Z,100118.47
2022-12-04T10:07:04.696Z,100114.38
2022-12-04T10:10:17.390Z,100109.41
2022-12-04T10:13:40.610Z,100102.31
2022-12-04T10:17:04.852Z,100109.84
2022-12-04T10:20:22.937Z,100101.16
2022-12-04T10:23:37.962Z,100115.19
2022-12-04T10:26:44.123Z,100097.84
2022-12-04T10:29:51.841Z,100099.69
2022-12-04T10:32:58.042Z,100091.53
2022-12-04T10:36:00.889Z,100081.13
2022-12-04T10:39:10.654Z,100081.88
2022-12-04T10:42:23.933Z,100081.25
2022-12-04T10:45:26.958Z,100072.69
2022-12-04T10:48:34.563Z,100078.06
2022-12-04T10:51:39.895Z,100074.19
2022-12-04T10:54:48.300Z,100063.63
2022-12-04T10:57:49.960Z,100057.09
2022-12-04T11:01:03.388Z,100054.94
2022-12-04T11:04:09.515Z,100044.38
2022-12-04T11:07:20.888Z,100043.63
2022-12-04T11:10:25.796Z,100040.66
2022-12-04T11:13:28.171Z,100043.28
2022-12-04T11:16:37.905Z,100053.16
2022-12-04T11:19:39.671Z,100054.25
2022-12-04T11:22:50.640Z,100047.56
2022-12-04T11:25:59.388Z,100060.16
2022-12-04T11:29:05.859Z,100058.69
2022-12-04T11:32:21.709Z,100058.47
2022-12-04T11:35:25.611Z,100052.38
2022-12-04T11:38:28.990Z,100045.94
2022-12-04T11:41:32.170Z,100063.16
2022-12-04T11:44:35.800Z,100063.88
2022-12-04T11:47:38.813Z,100068.34
2022-12-04T11:50:47.684Z,100075.75
2022-12-04T11:53:55.621Z,100074.31
2022-12-04T11:57:10.046Z,100077.63
2022-12-04T12:00:15.156Z,100071.31
2022-12-04T12:03:25.146Z,100073.22
2022-12-04T12:06:34.900Z,100074.31
2022-12-04T12:09:45.929Z,100078.41
2022-12-04T12:12:56.451Z,100069.06
2022-12-04T12:16:03.301Z,100067.59
2022-12-04T12:19:21.505Z,100065.78
2022-12-04T12:22:39.736Z,100058.56
2022-12-04T12:25:52.274Z,100066.94
2022-12-04T12:29:10.268Z,100057.13
2022-12-04T12:32:25.592Z,100056.75
2022-12-04T12:35:33.194Z,100062.84
2022-12-04T12:38:40.435Z,100067.88
2022-12-04T12:41:46.782Z,100067.31
2022-12-04T12:44:54.633Z,100074.16
2022-12-04T12:48:00.684Z,100074.72
2022-12-04T12:51:29.544Z,100076.38
2022-12-04T12:54:41.162Z,100075.47
2022-12-04T12:57:46.515Z,100071.41
2022-12-04T13:00:51.421Z,100065.50
2022-12-04T13:03:58.330Z,100046.19
2022-12-04T13:07:14.623Z,100027.31
2022-12-04T13:10:20.656Z,100025.66
2022-12-04T13:13:26.029Z,100034.91
2022-12-04T13:16:31.128Z,100028.78
2022-12-04T13:19:43.177Z,100018.03
2022-12-04T13:22:54.644Z,100017.31
2022-12-04T13:26:04.986Z,100016.22
2022-12-04T13:29:18.001Z,100013.41
2022-12-04T13:32:53.429Z,100009.53
2022-12-04T13:36:19.711Z,100022.69
2022-12-04T13:39:42.695Z,100022.88
2022-12-04T13:42:44.621Z,100014.72
2022-12-04T13:45:48.556Z,100024.34
2022-12-04T13:48:50.265Z,100025.06
2022-12-04T13:51:52.781Z,100013.94
2022-12-04T13:54:59.520Z,100009.88
2022-12-04T13:58:04.193Z,100013.41
2022-12-04T14:01:21.162Z,100003.97
2022-12-04T14:04:26.176Z,100001.91
2022-12-04T14:07:32.113Z,100001.38
2022-12-04T14:10:36.930Z,100004.34
2022-12-04T14:13:44.580Z,100011.38
2022-12-04T14:16:49.393Z,100000.41
2022-12-04T14:19:53.774Z,100000.00
2022-12-04T14:23:06.741Z,99998.19
2022-12-04T14:26:37.333Z,100005.22
2022-12-04T14:29:49.590Z,100005.97
2022-12-04T14:32:54.940Z,100014.53
2022-12-04T14:36:01.632Z,100026.16
2022-12-04T14:39:08.140Z,100036.16
2022-12-04T14:42:14.705Z,100041.16
2022-12-04T14:45:28.854Z,100040.06
2022-12-04T14:48:37.575Z,100043.44
2022-12-04T14:51:48.852Z,100040.81
2022-12-04T14:54:56.893Z,100044.13
2022-12-04T14:58:21.556Z,100038.41
2022-12-04T15:01:28.989Z,100037.47
2022-12-04T15:04:34.856Z,100036.16
2022-12-04T15:07:37.161Z,100038.56
2022-12-04T15:10:58.611Z,100039.50
2022-12-04T15:14:11.661Z,100040.28
2022-12-04T15:17:15.636Z,100036.34
2022-12-04T15:20:19.700Z,100032.81
2022-12-04T15:23:28.064Z,100027.44
2022-12-04T15:26:30.019Z,100019.31
2022-12-04T15:29:38.207Z,100020.22
2022-12-04T15:32:40.048Z,100021.72
2022-12-04T15:35:46.310Z,100020.94
2022-12-04T15:38:50.173Z,100029.88
2022-12-04T15:41:52.194Z,100041.53
2022-12-04T15:45:02.946Z,100042.09
2022-12-04T15:48:04.939Z,100048.59
2022-12-04T15:51:08.493Z,100054.53
2022-12-04T15:54:19.390Z,100044.88
2022-12-04T15:57:26.604Z,100039.53
2022-12-04T16:00:32.464Z,100037.88
2022-12-04T16:03:39.400Z,100038.38
2022-12-04T16:06:47.377Z,100031.94
2022-12-04T16:09:59.556Z,100028.78
2022-12-04T16:13:05.402Z,100040.66
2022-12-04T16:16:13.701Z,100031.97
2022-12-04T16:19:21.956Z,100034.38
2022-12-04T16:22:25.107Z,100027.31
2022-12-04T16:25:26.940Z,100039.91
2022-12-04T16:28:28.621Z,100037.50
2022-12-04T16:31:31.849Z,100036.78
2022-12-04T16:34:33.520Z,100039.56
2022-12-04T16:37:35.150Z,100040.47
2022-12-04T16:40:36.779Z,100048.06
2022-12-04T16:43:38.545Z,100039.38
2022-12-04T16:46:42.468Z,100043.81
2022-12-04T16:49:49.502Z,100039.75
2022-12-04T16:52:51.781Z,100034.00
2022-12-04T16:55:53.510Z,100029.34
2022-12-04T16:58:55.133Z,100029.34
2022-12-04T17:01:58.922Z,100026.59
2022-12-04T17:05:01.018Z,100036.41
2022-12-04T17:08:03.168Z,100029.94
2022-12-04T17:11:05.105Z,100025.88
2022-12-04T17:14:07.096Z,100022.72
2022-12-04T17:17:10.091Z,100019.56
2022-12-04T17:20:13.362Z,100004.53
2022-12-04T17:23:15.143Z,100006.41
2022-12-04T17:26:16.868Z,99997.31
2022-12-04T17:29:18.596Z,100004.56
2022-12-04T17:32:21.793Z,99998.44
2022-12-04T17:35:23.448Z,99987.69
2022-12-04T17:38:25.120Z,99985.88
2022-12-04T17:41:26.871Z,99978.63
2022-12-04T17:44:28.613Z,99981.41
2022-12-04T17:47:31.665Z,99989.53
2022-12-04T17:50:33.417Z,99993.44
2022-12-04T17:53:35.294Z,100011.59
2022-12-04T17:56:37.047Z,100012.34
2022-12-04T17:59:38.839Z,100018.06
2022-12-04T18:02:42.364Z,100023.63
2022-12-04T18:05:44.082Z,100026.38
2022-12-04T18:08:50.083Z,100037.69
2022-12-04T18:11:52.201Z,100029.53
2022-12-04T18:14:54.012Z,100031.41
2022-12-04T18:17:56.953Z,100027.72
2022-12-04T18:21:01.927Z,100032.31
2022-12-04T18:24:04.956Z,100029.53
2022-12-04T18:27:07.626Z,100022.53
2022-12-04T18:30:09.950Z,100026.75
2022-12-04T18:33:18.737Z,100035.09
2022-12-04T18:36:23.055Z,100024.56
2022-12-04T18:39:25.820Z,100034.38
2022-12-04T18:42:27.450Z,100026.59
2022-12-04T18:45:29.140Z,100028.81
2022-12-04T18:48:32.932Z,100032.53
2022-12-04T18:51:37.573Z,100036.22
2022-12-04T18:54:39.222Z,100029.75
2022-12-04T18:57:40.827Z,100034.00
2022-12-04T19:00:42.850Z,100042.72
2022-12-04T19:03:46.597Z,100029.19
2022-12-04T19:06:50.244Z,100025.47
2022-12-04T19:10:11.046Z,100029.34
2022-12-04T19:13:13.029Z,100017.53
2022-12-04T19:16:16.456Z,100024.16
2022-12-04T19:19:19.584Z,100029.19
2022-12-04T19:22:21.243Z,100046.03
2022-12-04T19:25:22.809Z,100040.28
2022-12-04T19:28:25.860Z,100048.47
2022-12-04T19:31:29.457Z,100040.28
2022-12-04T19:34:32.604Z,100050.28
2022-12-04T19:37:39.624Z,100053.06
2022-12-04T19:40:43.280Z,100055.47
2022-12-04T19:43:46.707Z,100057.31
2022-12-04T19:46:48.413Z,100067.72
2022-12-04T19:49:51.506Z,100078.28
2022-12-04T19:52:53.221Z,100069.94
2022-12-04T19:55:54.864Z,100072.69
2022-12-04T19:58:58.254Z,100080.84
2022-12-04T20:02:00.132Z,100085.88
2022-12-04T20:05:03.457Z,100096.25
2022-12-04T20:11:11.584Z,100088.84
2022-12-04T20:14:13.545Z,100099.41
2022-12-04T20:17:15.223Z,100099.22
2022-12-04T20:20:18.459Z,100098.84
2022-12-04T20:23:20.184Z,100102.16
2022-12-04T20:26:24.875Z,100096.81
2022-12-04T20:29:26.773Z,100096.44
2022-12-04T20:32:28.381Z,100102.34
2022-12-04T20:35:31.447Z,100105.16
2022-12-04T20:38:33.158Z,100099.22
2022-12-04T20:41:35.295Z,100112.38
2022-12-04T20:44:37.059Z,100109.03
2022-12-04T20:47:39.406Z,100113.66
2022-12-04T20:50:45.901Z,100109.59
2022-12-04T20:53:49.671Z,100108.28
2022-12-04T20:56:53.550Z,100113.13
2022-12-04T20:59:55.667Z,100118.47
2022-12-04T21:02:57.878Z,100120.91
2022-12-04T21:06:00.984Z,100116.63
2022-12-04T21:09:05.716Z,100111.25
2022-12-04T21:12:28.120Z,100120.69
2022-12-04T21:15:59.056Z,100113.66
2022-12-04T21:19:01.503Z,100119.97
2022-12-04T21:22:04.759Z,100115.16
2022-12-04T21:25:09.286Z,100119.63
2022-12-04T21:28:11.389Z,100123.31
2022-12-04T21:31:13.490Z,100113.13
2022-12-04T21:34:17.013Z,100119.22
2022-12-04T21:37:20.077Z,100112.91
2022-12-04T21:40:21.691Z,100114.03
2022-12-04T21:43:23.469Z,100122.38
2022-12-04T21:46:25.187Z,100134.97
2022-12-04T21:49:27.096Z,100127.78
2022-12-04T21:52:30.403Z,100130.34
2022-12-04T21:55:32.057Z,100136.06
2022-12-04T21:58:34.734Z,100131.81
2022-12-04T22:01:37.358Z,100134.94
2022-12-04T22:04:39.484Z,100137.53
2022-12-04T22:07:42.511Z,100146.44
2022-12-04T22:10:46.199Z,100150.00
2022-12-04T22:13:47.844Z,100134.44
2022-12-04T22:16:50.520Z,100142.34
2022-12-04T22:19:52.171Z,100144.94
2022-12-04T22:22:55.278Z,100145.72
2022-12-04T22:26:04.146Z,100149.97
2022-12-04T22:29:27.268Z,100149.59
2022-12-04T22:32:28.061Z,100144.63
2022-12-04T22:35:29.747Z,100147.59
2022-12-04T22:38:32.872Z,100150.19
2022-12-04T22:41:35.290Z,100149.41
2022-12-04T22:44:36.894Z,100155.72
2022-12-04T22:47:38.758Z,100158.88
2022-12-04T22:50:40.412Z,100158.13
2022-12-04T22:53:45.445Z,100162.19
2022-12-04T22:56:47.195Z,100151.09
2022-12-04T22:59:49.092Z,100163.31
2022-12-04T23:02:50.795Z,100163.88
2022-12-04T23:05:52.565Z,100165.56
2022-12-04T23:08:56.904Z,100172.97
2022-12-04T23:11:58.568Z,100166.47
2022-12-04T23:15:00.210Z,100166.47
2022-12-04T23:18:01.850Z,100172.56
2022-12-04T23:21:05.736Z,100171.09
2022-12-04T23:24:09.527Z,100162.00
2022-12-04T23:27:11.135Z,100162.41
2022-12-04T23:30:13.059Z,100159.63
2022-12-04T23:33:14.681Z,100165.19
2022-12-04T23:36:16.835Z,100157.41
2022-12-04T23:39:19.819Z,100157.75
2022-12-04T23:42:21.506Z,100146.28
2022-12-04T23:45:23.145Z,100158.16
2022-12-04T23:48:25.197Z,100162.22
2022-12-04T23:51:27.335Z,100165.19
2022-12-04T23:54:34.836Z,100171.13
2022-12-04T23:57:36.401Z,100168.34
